sensor_id;sensor_type;location;lat;lon;timestamp;P1;durP1;ratioP1;P2;durP2;ratioP2
58250;SDS011;51449;51.676;5.812;2023-04-29T00:01:33;57.33;;;29.33;;
58250;SDS011;51449;51.676;5.812;2023-04-29T00:03:55;58.00;;;26.93;;
58250;SDS011;51449;51.676;5.812;2023-04-29T00:06:17;58.17;;;28.90;;
58250;SDS011;51449;51.676;5.812;2023-04-29T00:08:39;60.47;;;29.40;;
58250;SDS011;51449;51.676;5.812;2023-04-29T00:11:01;60.00;;;31.73;;
58250;SDS011;51449;51.676;5.812;2023-04-29T00:13:23;64.13;;;32.07;;
58250;SDS011;51449;51.676;5.812;2023-04-29T00:15:46;61.13;;;30.97;;
58250;SDS011;51449;51.676;5.812;2023-04-29T00:18:08;58.97;;;31.73;;
58250;SDS011;51449;51.676;5.812;2023-04-29T00:20:30;61.10;;;31.07;;
58250;SDS011;51449;51.676;5.812;2023-04-29T00:22:53;61.23;;;31.33;;
58250;SDS011;51449;51.676;5.812;2023-04-29T00:25:14;60.50;;;31.00;;
58250;SDS011;51449;51.676;5.812;2023-04-29T00:27:37;65.90;;;33.97;;
58250;SDS011;51449;51.676;5.812;2023-04-29T00:29:59;70.20;;;33.30;;
58250;SDS011;51449;51.676;5.812;2023-04-29T00:32:21;68.23;;;34.40;;
58250;SDS011;51449;51.676;5.812;2023-04-29T00:34:43;62.80;;;33.73;;
58250;SDS011;51449;51.676;5.812;2023-04-29T00:37:04;60.90;;;32.23;;
58250;SDS011;51449;51.676;5.812;2023-04-29T00:39:26;62.43;;;33.20;;
58250;SDS011;51449;51.676;5.812;2023-04-29T00:41:48;53.03;;;29.77;;
58250;SDS011;51449;51.676;5.812;2023-04-29T00:44:11;58.03;;;32.53;;
58250;SDS011;51449;51.676;5.812;2023-04-29T00:46:32;57.00;;;32.93;;
58250;SDS011;51449;51.676;5.812;2023-04-29T00:48:55;55.67;;;31.03;;
58250;SDS011;51449;51.676;5.812;2023-04-29T00:51:17;53.33;;;30.73;;
58250;SDS011;51449;51.676;5.812;2023-04-29T00:53:38;47.83;;;28.13;;
58250;SDS011;51449;51.676;5.812;2023-04-29T00:56:02;49.40;;;27.97;;
58250;SDS011;51449;51.676;5.812;2023-04-29T00:58:24;50.97;;;28.07;;
58250;SDS011;51449;51.676;5.812;2023-04-29T01:00:53;46.33;;;27.03;;
58250;SDS011;51449;51.676;5.812;2023-04-29T01:03:16;50.80;;;28.97;;
58250;SDS011;51449;51.676;5.812;2023-04-29T01:05:40;48.07;;;28.33;;
58250;SDS011;51449;51.676;5.812;2023-04-29T01:11:07;43.97;;;26.00;;
58250;SDS011;51449;51.676;5.812;2023-04-29T01:13:50;49.00;;;26.43;;
58250;SDS011;51449;51.676;5.812;2023-04-29T01:16:28;45.60;;;26.00;;
58250;SDS011;51449;51.676;5.812;2023-04-29T01:19:04;46.77;;;25.93;;
58250;SDS011;51449;51.676;5.812;2023-04-29T01:21:46;44.80;;;25.13;;
58250;SDS011;51449;51.676;5.812;2023-04-29T01:24:09;48.27;;;26.53;;
58250;SDS011;51449;51.676;5.812;2023-04-29T01:26:31;46.13;;;26.07;;
58250;SDS011;51449;51.676;5.812;2023-04-29T01:29:21;47.80;;;25.43;;
58250;SDS011;51449;51.676;5.812;2023-04-29T01:32:04;48.00;;;25.07;;
58250;SDS011;51449;51.676;5.812;2023-04-29T01:34:39;43.57;;;24.83;;
58250;SDS011;51449;51.676;5.812;2023-04-29T01:37:17;47.63;;;24.93;;
58250;SDS011;51449;51.676;5.812;2023-04-29T01:43:03;46.87;;;24.93;;
58250;SDS011;51449;51.676;5.812;2023-04-29T01:45:34;47.37;;;25.93;;
58250;SDS011;51449;51.676;5.812;2023-04-29T01:48:02;48.23;;;26.63;;
58250;SDS011;51449;51.676;5.812;2023-04-29T01:50:25;47.47;;;24.87;;
58250;SDS011;51449;51.676;5.812;2023-04-29T01:52:50;45.87;;;24.33;;
58250;SDS011;51449;51.676;5.812;2023-04-29T01:55:13;50.87;;;26.53;;
58250;SDS011;51449;51.676;5.812;2023-04-29T02:00:18;43.77;;;24.20;;
58250;SDS011;51449;51.676;5.812;2023-04-29T02:02:44;50.20;;;27.10;;
58250;SDS011;51449;51.676;5.812;2023-04-29T02:05:21;49.20;;;25.70;;
58250;SDS011;51449;51.676;5.812;2023-04-29T02:07:49;49.83;;;26.53;;
58250;SDS011;51449;51.676;5.812;2023-04-29T02:10:11;48.20;;;24.83;;
58250;SDS011;51449;51.676;5.812;2023-04-29T02:12:35;44.00;;;23.73;;
58250;SDS011;51449;51.676;5.812;2023-04-29T02:14:57;47.13;;;24.77;;
58250;SDS011;51449;51.676;5.812;2023-04-29T02:17:20;45.63;;;24.70;;
58250;SDS011;51449;51.676;5.812;2023-04-29T02:19:42;51.80;;;26.67;;
58250;SDS011;51449;51.676;5.812;2023-04-29T02:22:04;45.80;;;23.70;;
58250;SDS011;51449;51.676;5.812;2023-04-29T02:24:26;46.33;;;24.37;;
58250;SDS011;51449;51.676;5.812;2023-04-29T02:26:48;48.93;;;24.27;;
58250;SDS011;51449;51.676;5.812;2023-04-29T02:29:09;49.77;;;24.03;;
58250;SDS011;51449;51.676;5.812;2023-04-29T02:31:32;49.43;;;23.17;;
58250;SDS011;51449;51.676;5.812;2023-04-29T02:33:54;44.03;;;22.37;;
58250;SDS011;51449;51.676;5.812;2023-04-29T02:36:16;46.90;;;22.87;;
58250;SDS011;51449;51.676;5.812;2023-04-29T02:38:38;44.83;;;22.10;;
58250;SDS011;51449;51.676;5.812;2023-04-29T02:41:00;46.77;;;23.43;;
58250;SDS011;51449;51.676;5.812;2023-04-29T02:43:21;47.37;;;22.27;;
58250;SDS011;51449;51.676;5.812;2023-04-29T02:45:43;45.77;;;22.77;;
58250;SDS011;51449;51.676;5.812;2023-04-29T02:48:05;48.20;;;23.00;;
58250;SDS011;51449;51.676;5.812;2023-04-29T02:50:28;47.27;;;23.07;;
58250;SDS011;51449;51.676;5.812;2023-04-29T02:52:49;49.20;;;21.77;;
58250;SDS011;51449;51.676;5.812;2023-04-29T02:55:12;42.03;;;21.23;;
58250;SDS011;51449;51.676;5.812;2023-04-29T02:57:34;46.53;;;21.83;;
58250;SDS011;51449;51.676;5.812;2023-04-29T02:59:55;49.40;;;22.53;;
58250;SDS011;51449;51.676;5.812;2023-04-29T03:02:17;48.50;;;22.53;;
58250;SDS011;51449;51.676;5.812;2023-04-29T03:04:42;42.63;;;20.97;;
58250;SDS011;51449;51.676;5.812;2023-04-29T03:07:04;44.83;;;21.00;;
58250;SDS011;51449;51.676;5.812;2023-04-29T03:09:28;45.13;;;22.10;;
58250;SDS011;51449;51.676;5.812;2023-04-29T03:11:50;45.63;;;22.40;;
58250;SDS011;51449;51.676;5.812;2023-04-29T03:14:12;44.40;;;21.10;;
58250;SDS011;51449;51.676;5.812;2023-04-29T03:16:34;44.47;;;22.10;;
58250;SDS011;51449;51.676;5.812;2023-04-29T03:18:56;49.40;;;23.33;;
58250;SDS011;51449;51.676;5.812;2023-04-29T03:21:18;46.07;;;22.00;;
58250;SDS011;51449;51.676;5.812;2023-04-29T03:23:40;47.13;;;23.90;;
58250;SDS011;51449;51.676;5.812;2023-04-29T03:26:05;48.60;;;22.67;;
58250;SDS011;51449;51.676;5.812;2023-04-29T03:28:27;44.43;;;21.63;;
58250;SDS011;51449;51.676;5.812;2023-04-29T03:30:49;47.83;;;23.17;;
58250;SDS011;51449;51.676;5.812;2023-04-29T03:33:11;46.73;;;23.17;;
58250;SDS011;51449;51.676;5.812;2023-04-29T03:35:33;45.50;;;21.27;;
58250;SDS011;51449;51.676;5.812;2023-04-29T03:38:13;45.00;;;22.63;;
58250;SDS011;51449;51.676;5.812;2023-04-29T03:40:36;44.97;;;21.60;;
58250;SDS011;51449;51.676;5.812;2023-04-29T03:42:58;44.07;;;21.63;;
58250;SDS011;51449;51.676;5.812;2023-04-29T03:45:21;48.57;;;22.97;;
58250;SDS011;51449;51.676;5.812;2023-04-29T03:47:42;44.93;;;21.63;;
58250;SDS011;51449;51.676;5.812;2023-04-29T03:50:05;44.43;;;21.63;;
58250;SDS011;51449;51.676;5.812;2023-04-29T03:52:29;44.15;;;21.70;;
58250;SDS011;51449;51.676;5.812;2023-04-29T03:54:55;46.50;;;23.43;;
58250;SDS011;51449;51.676;5.812;2023-04-29T03:57:17;44.83;;;22.30;;
58250;SDS011;51449;51.676;5.812;2023-04-29T03:59:39;48.00;;;22.67;;
58250;SDS011;51449;51.676;5.812;2023-04-29T04:02:01;52.67;;;23.33;;
58250;SDS011;51449;51.676;5.812;2023-04-29T04:04:23;48.30;;;23.83;;
58250;SDS011;51449;51.676;5.812;2023-04-29T04:06:45;46.50;;;22.90;;
58250;SDS011;51449;51.676;5.812;2023-04-29T04:09:14;48.70;;;22.07;;
58250;SDS011;51449;51.676;5.812;2023-04-29T04:11:35;42.67;;;21.93;;
58250;SDS011;51449;51.676;5.812;2023-04-29T04:13:58;45.33;;;22.27;;
58250;SDS011;51449;51.676;5.812;2023-04-29T04:16:19;46.57;;;23.17;;
58250;SDS011;51449;51.676;5.812;2023-04-29T04:18:41;47.00;;;22.73;;
58250;SDS011;51449;51.676;5.812;2023-04-29T04:21:07;46.33;;;23.10;;
58250;SDS011;51449;51.676;5.812;2023-04-29T04:23:32;47.03;;;23.47;;
58250;SDS011;51449;51.676;5.812;2023-04-29T04:25:56;47.08;;;22.63;;
58250;SDS011;51449;51.676;5.812;2023-04-29T04:28:37;50.53;;;24.10;;
58250;SDS011;51449;51.676;5.812;2023-04-29T04:31:19;46.83;;;23.53;;
58250;SDS011;51449;51.676;5.812;2023-04-29T04:33:41;44.10;;;23.40;;
58250;SDS011;51449;51.676;5.812;2023-04-29T04:36:02;47.87;;;23.27;;
58250;SDS011;51449;51.676;5.812;2023-04-29T04:38:24;48.30;;;23.23;;
58250;SDS011;51449;51.676;5.812;2023-04-29T04:40:48;45.50;;;22.23;;
58250;SDS011;51449;51.676;5.812;2023-04-29T04:43:19;42.43;;;23.30;;
58250;SDS011;51449;51.676;5.812;2023-04-29T04:45:41;49.13;;;23.30;;
58250;SDS011;51449;51.676;5.812;2023-04-29T04:48:03;43.87;;;22.10;;
58250;SDS011;51449;51.676;5.812;2023-04-29T04:50:27;47.97;;;24.70;;
58250;SDS011;51449;51.676;5.812;2023-04-29T04:52:50;49.17;;;23.47;;
58250;SDS011;51449;51.676;5.812;2023-04-29T04:55:32;43.43;;;22.70;;
58250;SDS011;51449;51.676;5.812;2023-04-29T04:57:54;43.40;;;22.57;;
58250;SDS011;51449;51.676;5.812;2023-04-29T05:00:16;41.80;;;21.47;;
58250;SDS011;51449;51.676;5.812;2023-04-29T05:02:38;39.77;;;20.97;;
58250;SDS011;51449;51.676;5.812;2023-04-29T05:05:00;40.17;;;21.50;;
58250;SDS011;51449;51.676;5.812;2023-04-29T05:07:25;40.60;;;21.63;;
58250;SDS011;51449;51.676;5.812;2023-04-29T05:09:54;42.47;;;21.67;;
58250;SDS011;51449;51.676;5.812;2023-04-29T05:12:16;42.53;;;22.50;;
58250;SDS011;51449;51.676;5.812;2023-04-29T05:14:37;43.80;;;22.30;;
58250;SDS011;51449;51.676;5.812;2023-04-29T05:16:59;40.37;;;21.77;;
58250;SDS011;51449;51.676;5.812;2023-04-29T05:19:21;41.10;;;20.67;;
58250;SDS011;51449;51.676;5.812;2023-04-29T05:21:43;40.63;;;22.07;;
58250;SDS011;51449;51.676;5.812;2023-04-29T05:24:05;39.70;;;21.43;;
58250;SDS011;51449;51.676;5.812;2023-04-29T05:26:27;37.53;;;20.90;;
58250;SDS011;51449;51.676;5.812;2023-04-29T05:28:53;34.47;;;20.70;;
58250;SDS011;51449;51.676;5.812;2023-04-29T05:31:15;37.60;;;21.43;;
58250;SDS011;51449;51.676;5.812;2023-04-29T05:33:37;37.43;;;20.97;;
58250;SDS011;51449;51.676;5.812;2023-04-29T05:35:59;33.37;;;19.53;;
58250;SDS011;51449;51.676;5.812;2023-04-29T05:38:21;37.90;;;20.23;;
58250;SDS011;51449;51.676;5.812;2023-04-29T05:40:57;38.20;;;21.10;;
58250;SDS011;51449;51.676;5.812;2023-04-29T05:43:38;36.50;;;20.73;;
58250;SDS011;51449;51.676;5.812;2023-04-29T05:45:59;34.07;;;19.60;;
58250;SDS011;51449;51.676;5.812;2023-04-29T05:48:21;36.33;;;20.07;;
58250;SDS011;51449;51.676;5.812;2023-04-29T05:50:44;34.43;;;18.97;;
58250;SDS011;51449;51.676;5.812;2023-04-29T05:53:06;32.30;;;19.80;;
58250;SDS011;51449;51.676;5.812;2023-04-29T05:55:28;38.30;;;20.13;;
58250;SDS011;51449;51.676;5.812;2023-04-29T05:57:49;32.17;;;18.77;;
58250;SDS011;51449;51.676;5.812;2023-04-29T06:00:11;33.87;;;20.03;;
58250;SDS011;51449;51.676;5.812;2023-04-29T06:02:33;33.90;;;19.10;;
58250;SDS011;51449;51.676;5.812;2023-04-29T06:05:02;34.80;;;20.53;;
58250;SDS011;51449;51.676;5.812;2023-04-29T06:07:33;35.80;;;19.13;;
58250;SDS011;51449;51.676;5.812;2023-04-29T06:10:04;32.93;;;19.03;;
58250;SDS011;51449;51.676;5.812;2023-04-29T06:12:27;32.53;;;18.73;;
58250;SDS011;51449;51.676;5.812;2023-04-29T06:14:48;31.63;;;18.33;;
58250;SDS011;51449;51.676;5.812;2023-04-29T06:17:11;32.83;;;19.30;;
58250;SDS011;51449;51.676;5.812;2023-04-29T06:19:33;30.80;;;17.30;;
58250;SDS011;51449;51.676;5.812;2023-04-29T06:21:55;29.73;;;18.37;;
58250;SDS011;51449;51.676;5.812;2023-04-29T06:24:17;28.70;;;16.80;;
58250;SDS011;51449;51.676;5.812;2023-04-29T06:26:39;26.40;;;16.13;;
58250;SDS011;51449;51.676;5.812;2023-04-29T06:29:01;29.93;;;18.30;;
58250;SDS011;51449;51.676;5.812;2023-04-29T06:31:23;32.30;;;19.33;;
58250;SDS011;51449;51.676;5.812;2023-04-29T06:33:47;28.25;;;17.08;;
58250;SDS011;51449;51.676;5.812;2023-04-29T06:36:09;25.40;;;16.83;;
58250;SDS011;51449;51.676;5.812;2023-04-29T06:38:49;28.80;;;18.40;;
58250;SDS011;51449;51.676;5.812;2023-04-29T06:41:34;26.98;;;17.15;;
58250;SDS011;51449;51.676;5.812;2023-04-29T06:44:00;30.10;;;17.70;;
58250;SDS011;51449;51.676;5.812;2023-04-29T06:46:31;29.40;;;17.60;;
58250;SDS011;51449;51.676;5.812;2023-04-29T06:48:58;27.67;;;16.90;;
58250;SDS011;51449;51.676;5.812;2023-04-29T06:51:19;29.57;;;17.70;;
58250;SDS011;51449;51.676;5.812;2023-04-29T06:53:41;30.40;;;18.17;;
58250;SDS011;51449;51.676;5.812;2023-04-29T06:56:03;26.50;;;17.43;;
58250;SDS011;51449;51.676;5.812;2023-04-29T06:58:26;29.43;;;18.17;;
58250;SDS011;51449;51.676;5.812;2023-04-29T07:00:48;28.47;;;16.90;;
58250;SDS011;51449;51.676;5.812;2023-04-29T07:03:11;30.07;;;18.20;;
58250;SDS011;51449;51.676;5.812;2023-04-29T07:05:34;26.37;;;17.27;;
58250;SDS011;51449;51.676;5.812;2023-04-29T07:07:55;29.07;;;17.60;;
58250;SDS011;51449;51.676;5.812;2023-04-29T07:10:18;27.80;;;18.23;;
58250;SDS011;51449;51.676;5.812;2023-04-29T07:12:40;27.03;;;18.17;;
58250;SDS011;51449;51.676;5.812;2023-04-29T07:15:02;28.07;;;17.57;;
58250;SDS011;51449;51.676;5.812;2023-04-29T07:17:24;25.87;;;16.97;;
58250;SDS011;51449;51.676;5.812;2023-04-29T07:19:46;25.20;;;17.13;;
58250;SDS011;51449;51.676;5.812;2023-04-29T07:22:07;25.90;;;17.07;;
58250;SDS011;51449;51.676;5.812;2023-04-29T07:24:29;25.20;;;17.30;;
58250;SDS011;51449;51.676;5.812;2023-04-29T07:26:51;28.37;;;16.60;;
58250;SDS011;51449;51.676;5.812;2023-04-29T07:29:13;28.27;;;17.63;;
58250;SDS011;51449;51.676;5.812;2023-04-29T07:31:34;25.53;;;17.97;;
58250;SDS011;51449;51.676;5.812;2023-04-29T07:33:58;26.70;;;17.83;;
58250;SDS011;51449;51.676;5.812;2023-04-29T07:36:20;23.90;;;17.20;;
58250;SDS011;51449;51.676;5.812;2023-04-29T07:38:42;27.43;;;16.87;;
58250;SDS011;51449;51.676;5.812;2023-04-29T07:41:04;26.53;;;16.40;;
58250;SDS011;51449;51.676;5.812;2023-04-29T07:43:26;25.43;;;17.27;;
58250;SDS011;51449;51.676;5.812;2023-04-29T07:45:48;24.87;;;17.83;;
58250;SDS011;51449;51.676;5.812;2023-04-29T07:48:10;23.70;;;16.53;;
58250;SDS011;51449;51.676;5.812;2023-04-29T07:50:35;28.40;;;17.87;;
58250;SDS011;51449;51.676;5.812;2023-04-29T07:52:57;29.10;;;18.23;;
58250;SDS011;51449;51.676;5.812;2023-04-29T07:55:20;27.07;;;17.23;;
58250;SDS011;51449;51.676;5.812;2023-04-29T07:57:42;23.97;;;15.53;;
58250;SDS011;51449;51.676;5.812;2023-04-29T08:00:04;27.10;;;18.57;;
58250;SDS011;51449;51.676;5.812;2023-04-29T08:02:34;25.43;;;16.90;;
58250;SDS011;51449;51.676;5.812;2023-04-29T08:04:57;23.10;;;16.53;;
58250;SDS011;51449;51.676;5.812;2023-04-29T08:07:19;27.43;;;17.20;;
58250;SDS011;51449;51.676;5.812;2023-04-29T08:09:41;23.87;;;16.80;;
58250;SDS011;51449;51.676;5.812;2023-04-29T08:12:04;26.60;;;17.03;;
58250;SDS011;51449;51.676;5.812;2023-04-29T08:14:26;25.40;;;17.23;;
58250;SDS011;51449;51.676;5.812;2023-04-29T08:16:48;24.60;;;17.43;;
58250;SDS011;51449;51.676;5.812;2023-04-29T08:19:10;22.60;;;16.17;;
58250;SDS011;51449;51.676;5.812;2023-04-29T08:21:32;29.93;;;16.70;;
58250;SDS011;51449;51.676;5.812;2023-04-29T08:23:55;24.33;;;15.27;;
58250;SDS011;51449;51.676;5.812;2023-04-29T08:26:17;23.90;;;15.67;;
58250;SDS011;51449;51.676;5.812;2023-04-29T08:28:38;24.17;;;15.33;;
58250;SDS011;51449;51.676;5.812;2023-04-29T08:31:00;24.37;;;15.57;;
58250;SDS011;51449;51.676;5.812;2023-04-29T08:33:22;21.83;;;14.97;;
58250;SDS011;51449;51.676;5.812;2023-04-29T08:35:44;22.17;;;13.60;;
58250;SDS011;51449;51.676;5.812;2023-04-29T08:38:06;22.13;;;14.87;;
58250;SDS011;51449;51.676;5.812;2023-04-29T08:40:29;20.50;;;14.00;;
58250;SDS011;51449;51.676;5.812;2023-04-29T08:42:52;24.97;;;14.00;;
58250;SDS011;51449;51.676;5.812;2023-04-29T08:45:14;21.47;;;14.07;;
58250;SDS011;51449;51.676;5.812;2023-04-29T08:47:43;22.57;;;13.90;;
58250;SDS011;51449;51.676;5.812;2023-04-29T08:50:06;21.13;;;13.50;;
58250;SDS011;51449;51.676;5.812;2023-04-29T08:52:30;21.85;;;13.35;;
58250;SDS011;51449;51.676;5.812;2023-04-29T08:54:53;20.10;;;12.47;;
58250;SDS011;51449;51.676;5.812;2023-04-29T08:57:15;20.77;;;14.17;;
58250;SDS011;51449;51.676;5.812;2023-04-29T08:59:37;20.47;;;14.80;;
58250;SDS011;51449;51.676;5.812;2023-04-29T09:01:59;23.90;;;14.47;;
58250;SDS011;51449;51.676;5.812;2023-04-29T09:07:06;22.03;;;13.43;;
58250;SDS011;51449;51.676;5.812;2023-04-29T09:09:31;21.60;;;13.47;;
58250;SDS011;51449;51.676;5.812;2023-04-29T09:11:54;24.50;;;13.23;;
58250;SDS011;51449;51.676;5.812;2023-04-29T09:14:16;20.67;;;13.43;;
58250;SDS011;51449;51.676;5.812;2023-04-29T09:16:39;20.47;;;13.53;;
58250;SDS011;51449;51.676;5.812;2023-04-29T09:19:01;21.20;;;13.20;;
58250;SDS011;51449;51.676;5.812;2023-04-29T09:21:24;20.33;;;13.73;;
58250;SDS011;51449;51.676;5.812;2023-04-29T09:23:49;20.10;;;12.33;;
58250;SDS011;51449;51.676;5.812;2023-04-29T09:26:14;15.57;;;11.20;;
58250;SDS011;51449;51.676;5.812;2023-04-29T09:28:36;19.87;;;12.57;;
58250;SDS011;51449;51.676;5.812;2023-04-29T09:33:28;17.80;;;12.07;;
58250;SDS011;51449;51.676;5.812;2023-04-29T09:35:51;19.97;;;12.37;;
58250;SDS011;51449;51.676;5.812;2023-04-29T09:38:14;17.60;;;12.57;;
58250;SDS011;51449;51.676;5.812;2023-04-29T09:40:36;17.87;;;11.97;;
58250;SDS011;51449;51.676;5.812;2023-04-29T09:43:19;18.67;;;11.60;;
58250;SDS011;51449;51.676;5.812;2023-04-29T09:45:43;17.70;;;12.10;;
58250;SDS011;51449;51.676;5.812;2023-04-29T09:48:08;17.63;;;11.63;;
58250;SDS011;51449;51.676;5.812;2023-04-29T09:50:31;21.15;;;12.50;;
58250;SDS011;51449;51.676;5.812;2023-04-29T09:52:54;14.87;;;11.10;;
58250;SDS011;51449;51.676;5.812;2023-04-29T09:55:16;19.33;;;11.23;;
58250;SDS011;51449;51.676;5.812;2023-04-29T09:57:38;16.43;;;11.27;;
58250;SDS011;51449;51.676;5.812;2023-04-29T10:00:05;18.30;;;10.97;;
58250;SDS011;51449;51.676;5.812;2023-04-29T10:02:33;18.07;;;11.30;;
58250;SDS011;51449;51.676;5.812;2023-04-29T10:04:55;16.77;;;10.30;;
58250;SDS011;51449;51.676;5.812;2023-04-29T10:07:19;16.17;;;11.33;;
58250;SDS011;51449;51.676;5.812;2023-04-29T10:09:43;18.40;;;11.43;;
58250;SDS011;51449;51.676;5.812;2023-04-29T10:12:07;15.33;;;10.50;;
58250;SDS011;51449;51.676;5.812;2023-04-29T10:14:30;14.60;;;10.47;;
58250;SDS011;51449;51.676;5.812;2023-04-29T10:17:40;14.93;;;11.27;;
58250;SDS011;51449;51.676;5.812;2023-04-29T10:20:33;14.47;;;9.37;;
58250;SDS011;51449;51.676;5.812;2023-04-29T10:23:01;13.97;;;9.57;;
58250;SDS011;51449;51.676;5.812;2023-04-29T10:25:24;14.50;;;9.53;;
58250;SDS011;51449;51.676;5.812;2023-04-29T10:27:49;14.30;;;9.27;;
58250;SDS011;51449;51.676;5.812;2023-04-29T10:30:14;11.13;;;8.60;;
58250;SDS011;51449;51.676;5.812;2023-04-29T10:32:39;15.30;;;9.73;;
58250;SDS011;51449;51.676;5.812;2023-04-29T10:35:10;14.77;;;9.70;;
58250;SDS011;51449;51.676;5.812;2023-04-29T10:37:36;13.97;;;9.53;;
58250;SDS011;51449;51.676;5.812;2023-04-29T10:42:49;13.80;;;9.03;;
58250;SDS011;51449;51.676;5.812;2023-04-29T10:50:27;12.67;;;9.47;;
58250;SDS011;51449;51.676;5.812;2023-04-29T10:52:50;14.10;;;8.90;;
58250;SDS011;51449;51.676;5.812;2023-04-29T10:55:12;13.27;;;9.20;;
58250;SDS011;51449;51.676;5.812;2023-04-29T10:57:34;11.43;;;8.97;;
58250;SDS011;51449;51.676;5.812;2023-04-29T10:59:56;12.50;;;8.77;;
58250;SDS011;51449;51.676;5.812;2023-04-29T11:02:17;14.17;;;9.80;;
58250;SDS011;51449;51.676;5.812;2023-04-29T11:07:29;11.73;;;8.60;;
58250;SDS011;51449;51.676;5.812;2023-04-29T11:09:51;13.43;;;8.70;;
58250;SDS011;51449;51.676;5.812;2023-04-29T11:12:13;13.67;;;9.53;;
58250;SDS011;51449;51.676;5.812;2023-04-29T11:14:42;11.57;;;9.07;;
58250;SDS011;51449;51.676;5.812;2023-04-29T11:17:13;12.60;;;8.93;;
58250;SDS011;51449;51.676;5.812;2023-04-29T11:19:41;11.77;;;7.50;;
58250;SDS011;51449;51.676;5.812;2023-04-29T11:24:57;11.93;;;8.37;;
58250;SDS011;51449;51.676;5.812;2023-04-29T11:27:31;12.50;;;8.13;;
58250;SDS011;51449;51.676;5.812;2023-04-29T11:29:54;11.90;;;7.75;;
58250;SDS011;51449;51.676;5.812;2023-04-29T11:32:19;9.80;;;7.40;;
58250;SDS011;51449;51.676;5.812;2023-04-29T11:34:43;12.15;;;7.78;;
58250;SDS011;51449;51.676;5.812;2023-04-29T11:37:05;10.80;;;7.73;;
58250;SDS011;51449;51.676;5.812;2023-04-29T11:39:26;13.13;;;7.97;;
58250;SDS011;51449;51.676;5.812;2023-04-29T11:41:48;13.27;;;8.10;;
58250;SDS011;51449;51.676;5.812;2023-04-29T11:44:12;11.25;;;7.93;;
58250;SDS011;51449;51.676;5.812;2023-04-29T11:46:34;11.27;;;7.57;;
58250;SDS011;51449;51.676;5.812;2023-04-29T11:48:56;12.37;;;7.50;;
58250;SDS011;51449;51.676;5.812;2023-04-29T11:51:20;12.32;;;7.60;;
58250;SDS011;51449;51.676;5.812;2023-04-29T11:53:42;12.47;;;7.80;;
58250;SDS011;51449;51.676;5.812;2023-04-29T11:56:05;10.17;;;7.70;;
58250;SDS011;51449;51.676;5.812;2023-04-29T11:58:29;10.45;;;7.75;;
58250;SDS011;51449;51.676;5.812;2023-04-29T12:00:50;9.03;;;7.17;;
58250;SDS011;51449;51.676;5.812;2023-04-29T12:03:12;11.47;;;7.27;;
58250;SDS011;51449;51.676;5.812;2023-04-29T12:05:39;11.23;;;6.83;;
58250;SDS011;51449;51.676;5.812;2023-04-29T12:08:01;9.17;;;6.77;;
58250;SDS011;51449;51.676;5.812;2023-04-29T12:10:23;11.03;;;6.80;;
58250;SDS011;51449;51.676;5.812;2023-04-29T12:12:45;11.43;;;6.70;;
58250;SDS011;51449;51.676;5.812;2023-04-29T12:15:08;11.07;;;6.87;;
58250;SDS011;51449;51.676;5.812;2023-04-29T12:17:31;8.80;;;7.13;;
58250;SDS011;51449;51.676;5.812;2023-04-29T12:19:53;8.23;;;6.93;;
58250;SDS011;51449;51.676;5.812;2023-04-29T12:22:15;10.43;;;7.70;;
58250;SDS011;51449;51.676;5.812;2023-04-29T12:24:37;10.97;;;7.80;;
58250;SDS011;51449;51.676;5.812;2023-04-29T12:27:01;10.77;;;7.68;;
58250;SDS011;51449;51.676;5.812;2023-04-29T12:29:24;11.13;;;6.93;;
58250;SDS011;51449;51.676;5.812;2023-04-29T12:31:46;10.90;;;7.13;;
58250;SDS011;51449;51.676;5.812;2023-04-29T12:34:08;10.43;;;6.60;;
58250;SDS011;51449;51.676;5.812;2023-04-29T12:36:30;10.77;;;6.87;;
58250;SDS011;51449;51.676;5.812;2023-04-29T12:38:54;9.10;;;6.78;;
58250;SDS011;51449;51.676;5.812;2023-04-29T12:41:16;8.97;;;6.47;;
58250;SDS011;51449;51.676;5.812;2023-04-29T12:43:39;8.43;;;7.00;;
58250;SDS011;51449;51.676;5.812;2023-04-29T12:46:03;7.70;;;6.40;;
58250;SDS011;51449;51.676;5.812;2023-04-29T12:48:29;9.33;;;6.47;;
58250;SDS011;51449;51.676;5.812;2023-04-29T12:50:54;7.03;;;6.33;;
58250;SDS011;51449;51.676;5.812;2023-04-29T12:53:18;9.02;;;5.97;;
58250;SDS011;51449;51.676;5.812;2023-04-29T12:55:41;7.23;;;6.33;;
58250;SDS011;51449;51.676;5.812;2023-04-29T12:58:03;9.23;;;6.40;;
58250;SDS011;51449;51.676;5.812;2023-04-29T13:00:25;8.30;;;5.83;;
58250;SDS011;51449;51.676;5.812;2023-04-29T13:02:47;8.20;;;5.50;;
58250;SDS011;51449;51.676;5.812;2023-04-29T13:05:09;6.73;;;5.10;;
58250;SDS011;51449;51.676;5.812;2023-04-29T13:07:32;7.23;;;5.50;;
58250;SDS011;51449;51.676;5.812;2023-04-29T13:09:54;5.87;;;4.93;;
58250;SDS011;51449;51.676;5.812;2023-04-29T13:12:16;7.63;;;5.33;;
58250;SDS011;51449;51.676;5.812;2023-04-29T13:14:38;8.03;;;5.43;;
58250;SDS011;51449;51.676;5.812;2023-04-29T13:16:59;8.27;;;4.57;;
58250;SDS011;51449;51.676;5.812;2023-04-29T13:19:21;5.10;;;4.40;;
58250;SDS011;51449;51.676;5.812;2023-04-29T13:24:08;6.40;;;4.40;;
58250;SDS011;51449;51.676;5.812;2023-04-29T13:26:30;6.27;;;4.30;;
58250;SDS011;51449;51.676;5.812;2023-04-29T13:28:52;5.10;;;4.03;;
58250;SDS011;51449;51.676;5.812;2023-04-29T13:31:14;6.27;;;4.37;;
58250;SDS011;51449;51.676;5.812;2023-04-29T13:33:36;9.13;;;4.60;;
58250;SDS011;51449;51.676;5.812;2023-04-29T13:36:00;6.03;;;4.95;;
58250;SDS011;51449;51.676;5.812;2023-04-29T13:38:22;7.40;;;5.10;;
58250;SDS011;51449;51.676;5.812;2023-04-29T13:40:44;5.57;;;4.60;;
58250;SDS011;51449;51.676;5.812;2023-04-29T13:45:34;6.83;;;4.67;;
58250;SDS011;51449;51.676;5.812;2023-04-29T13:48:03;6.17;;;5.00;;
58250;SDS011;51449;51.676;5.812;2023-04-29T13:50:45;6.83;;;5.03;;
58250;SDS011;51449;51.676;5.812;2023-04-29T13:55:52;8.80;;;5.67;;
58250;SDS011;51449;51.676;5.812;2023-04-29T14:00:41;9.35;;;5.88;;
58250;SDS011;51449;51.676;5.812;2023-04-29T14:03:23;7.23;;;5.73;;
58250;SDS011;51449;51.676;5.812;2023-04-29T14:05:44;9.77;;;6.17;;
58250;SDS011;51449;51.676;5.812;2023-04-29T14:08:06;7.93;;;5.70;;
58250;SDS011;51449;51.676;5.812;2023-04-29T14:10:28;8.03;;;6.10;;
58250;SDS011;51449;51.676;5.812;2023-04-29T14:12:50;7.97;;;6.13;;
58250;SDS011;51449;51.676;5.812;2023-04-29T14:15:11;7.93;;;5.23;;
58250;SDS011;51449;51.676;5.812;2023-04-29T14:17:33;6.40;;;5.50;;
58250;SDS011;51449;51.676;5.812;2023-04-29T14:19:56;5.67;;;5.00;;
58250;SDS011;51449;51.676;5.812;2023-04-29T14:22:18;9.17;;;5.50;;
58250;SDS011;51449;51.676;5.812;2023-04-29T14:24:39;8.13;;;6.13;;
58250;SDS011;51449;51.676;5.812;2023-04-29T14:27:01;9.43;;;5.97;;
58250;SDS011;51449;51.676;5.812;2023-04-29T14:29:23;7.63;;;6.33;;
58250;SDS011;51449;51.676;5.812;2023-04-29T14:31:45;8.67;;;5.60;;
58250;SDS011;51449;51.676;5.812;2023-04-29T14:34:07;7.83;;;5.00;;
58250;SDS011;51449;51.676;5.812;2023-04-29T14:36:29;5.93;;;4.97;;
58250;SDS011;51449;51.676;5.812;2023-04-29T14:38:55;7.53;;;5.50;;
58250;SDS011;51449;51.676;5.812;2023-04-29T14:41:16;9.17;;;5.63;;
58250;SDS011;51449;51.676;5.812;2023-04-29T14:43:38;8.73;;;5.90;;
58250;SDS011;51449;51.676;5.812;2023-04-29T14:46:02;9.02;;;6.13;;
58250;SDS011;51449;51.676;5.812;2023-04-29T14:48:24;7.70;;;5.70;;